Time;durP1;ratioP1;P1;durP2;ratioP2;P2;SDS_P1;SDS_P2;PMS_P1;PMS_P2;Temp;Humidity;BMP_temperature;BMP_pressure;BME280_temperature;BME280_humidity;BME280_pressure;Samples;Min_cycle;Max_cycle;Signal;HPM_P1;HPM_P2
2023/07/21 00:02:30;;;;;;;17.90;9.43;;;;;;;27.91;57.13;99295.36;1801912;79;21315;-80
2023/07/21 00:05:36;;;;;;;16.85;8.80;;;;;;;28.00;56.74;99301.90;1802999;79;21323;-80
2023/07/21 00:08:43;;;;;;;24.35;9.53;;;;;;;28.08;56.59;99301.70;1802423;79;21299;-79
2023/07/21 00:11:49;;;;;;;19.17;9.45;;;;;;;28.03;56.63;99300.42;1800821;79;22074;-79
2023/07/21 00:14:55;;;;;;;14.80;8.58;;;;;;;27.78;57.43;99297.62;1803533;79;21893;-79
2023/07/21 00:18:03;;;;;;;17.82;8.90;;;;;;;27.67;57.81;99297.56;1810952;79;21300;-79
2023/07/21 00:21:10;;;;;;;17.57;9.18;;;;;;;27.58;58.25;99296.06;1809475;79;21339;-80
2023/07/21 00:24:18;;;;;;;15.75;8.90;;;;;;;27.88;57.46;99282.51;1810986;79;21858;-80
2023/07/21 00:27:24;;;;;;;12.43;8.80;;;;;;;27.82;57.55;99271.14;1809410;79;21311;-79
2023/07/21 00:30:30;;;;;;;16.10;9.93;;;;;;;27.64;58.06;99262.49;1809620;79;21196;-79
2023/07/21 00:33:37;;;;;;;14.33;8.95;;;;;;;27.62;58.09;99253.56;1809520;79;21767;-79
2023/07/21 00:36:45;;;;;;;15.23;10.05;;;;;;;27.71;57.76;99250.30;1809729;79;22017;-79
2023/07/21 00:39:51;;;;;;;18.87;9.33;;;;;;;27.48;58.38;99249.95;1809532;79;21311;-79
2023/07/21 00:42:57;;;;;;;13.53;8.60;;;;;;;27.46;58.51;99263.45;1810524;79;21330;-79
2023/07/21 00:46:03;;;;;;;16.07;9.03;;;;;;;27.58;58.37;99266.57;1811085;79;21308;-79
2023/07/21 00:49:09;;;;;;;15.65;8.60;;;;;;;27.64;58.36;99275.13;1811049;79;21847;-79
2023/07/21 00:52:18;;;;;;;19.05;8.93;;;;;;;27.77;57.94;99286.13;1811027;79;21331;-79
2023/07/21 00:55:24;;;;;;;16.00;8.70;;;;;;;27.82;57.97;99285.19;1811240;79;22508;-79
2023/07/21 00:58:30;;;;;;;15.78;9.63;;;;;;;27.73;58.29;99290.13;1810967;79;21303;-79
2023/07/21 01:05:03;;;;;;;16.97;9.43;;;;;;;27.83;58.09;99271.39;1809765;79;21227;-79
2023/07/21 01:08:11;;;;;;;12.80;8.28;;;;;;;27.75;58.18;99281.38;1810198;79;21906;-79
2023/07/21 01:11:18;;;;;;;18.48;8.85;;;;;;;27.81;57.91;99270.31;1811151;79;21827;-79
2023/07/21 01:14:24;;;;;;;20.92;9.83;;;;;;;27.85;57.75;99264.86;1809906;79;21296;-79
2023/07/21 01:17:30;;;;;;;19.25;8.05;;;;;;;27.81;57.84;99263.28;1808084;79;21315;-79
2023/07/21 01:20:37;;;;;;;18.80;8.85;;;;;;;27.85;57.51;99260.08;1786081;79;21295;-79
2023/07/21 01:23:50;;;;;;;15.88;8.63;;;;;;;28.06;56.94;99261.85;1809858;79;21913;-79
2023/07/21 01:26:55;;;;;;;13.20;8.60;;;;;;;28.07;56.95;99266.89;1810939;79;21283;-79
2023/07/21 01:30:04;;;;;;;15.48;9.05;;;;;;;27.90;57.01;99265.61;1811087;79;21958;-79
2023/07/21 01:33:13;;;;;;;15.18;8.93;;;;;;;28.00;57.00;99270.98;1810932;79;21879;-80
2023/07/21 01:36:20;;;;;;;11.80;8.63;;;;;;;28.07;56.88;99266.89;1811013;79;21278;-80
2023/07/21 01:39:25;;;;;;;12.63;7.85;;;;;;;28.22;56.03;99264.53;1809539;79;21391;-79
2023/07/21 01:42:31;;;;;;;13.95;8.68;;;;;;;28.15;56.43;99266.97;1810837;79;21288;-79
2023/07/21 01:45:38;;;;;;;12.45;8.58;;;;;;;28.35;55.91;99280.30;1810914;79;21275;-80
2023/07/21 01:48:47;;;;;;;12.82;7.85;;;;;;;28.42;55.64;99275.05;1810905;79;21283;-80
2023/07/21 01:51:58;;;;;;;13.18;8.23;;;;;;;28.73;54.59;99274.53;1811424;79;21283;-79
2023/07/21 01:55:16;;;;;;;15.68;8.73;;;;;;;28.66;54.61;99283.19;1809669;79;21327;-79
2023/07/21 01:58:21;;;;;;;13.62;8.63;;;;;;;28.81;53.96;99272.92;1809870;79;21319;-79
2023/07/21 02:01:28;;;;;;;14.43;8.53;;;;;;;28.50;54.63;99269.49;1809501;79;21846;-79
2023/07/21 02:04:35;;;;;;;12.40;8.50;;;;;;;27.90;56.00;99278.25;1809585;79;21355;-80
2023/07/21 02:07:41;;;;;;;13.28;8.48;;;;;;;28.37;55.29;99282.20;1811063;79;21299;-80
2023/07/21 02:10:47;;;;;;;11.28;9.08;;;;;;;28.15;55.75;99295.09;1811077;79;21311;-80
2023/07/21 02:13:56;;;;;;;20.70;8.88;;;;;;;28.13;55.79;99300.17;1808132;79;21882;-79
2023/07/21 02:17:02;;;;;;;14.58;8.55;;;;;;;28.14;55.96;99307.48;1809141;79;21889;-79
2023/07/21 02:20:14;;;;;;;11.08;8.33;;;;;;;27.96;56.42;99310.70;1811061;79;21311;-80
2023/07/21 02:23:20;;;;;;;17.25;8.88;;;;;;;28.00;56.29;99310.91;1810898;79;21327;-79
2023/07/21 02:26:25;;;;;;;12.73;8.95;;;;;;;27.69;57.10;99317.16;1811231;79;21307;-80
2023/07/21 02:29:31;;;;;;;14.07;8.50;;;;;;;28.02;56.05;99314.22;1811043;79;21288;-79
2023/07/21 02:32:38;;;;;;;15.08;9.10;;;;;;;27.58;56.76;99317.13;1809496;79;21295;-79
2023/07/21 02:35:44;;;;;;;17.40;9.13;;;;;;;27.72;56.72;99320.78;1809978;79;21300;-79
2023/07/21 02:38:51;;;;;;;15.35;9.53;;;;;;;27.92;56.14;99327.09;1810756;79;21323;-79
2023/07/21 02:41:59;;;;;;;14.25;9.45;;;;;;;28.10;56.28;99336.54;1811101;79;21874;-79
2023/07/21 02:45:05;;;;;;;14.07;9.05;;;;;;;28.30;56.34;99336.63;1810262;79;21295;-79
2023/07/21 02:48:12;;;;;;;19.87;10.03;;;;;;;28.22;55.92;99346.06;1811023;79;21327;-79
2023/07/21 02:51:19;;;;;;;14.70;8.58;;;;;;;27.92;56.39;99350.41;1810969;79;21882;-79
2023/07/21 02:54:25;;;;;;;13.00;8.73;;;;;;;27.93;56.20;99356.86;1810438;79;21323;-79
2023/07/21 02:57:32;;;;;;;18.17;9.65;;;;;;;27.83;56.35;99357.08;1811005;79;21284;-79
2023/07/21 03:00:38;;;;;;;17.30;9.53;;;;;;;28.10;55.79;99359.86;1811047;79;21254;-79
2023/07/21 03:03:46;;;;;;;15.80;9.00;;;;;;;27.97;55.95;99369.14;1809699;79;21330;-79
2023/07/21 03:06:53;;;;;;;15.03;9.58;;;;;;;27.95;56.01;99378.47;1811175;79;21276;-80
2023/07/21 03:09:59;;;;;;;15.85;9.83;;;;;;;28.05;55.73;99396.52;1810290;79;21347;-80
2023/07/21 03:13:20;;;;;;;16.05;9.68;;;;;;;27.94;56.33;99403.48;1877115;76;22208;-80
2023/07/21 03:16:28;;;;;;;19.00;11.22;;;;;;;28.12;56.15;99405.91;1781420;80;21196;-80
2023/07/21 03:19:36;;;;;;;15.98;11.12;;;;;;;28.52;55.95;99404.20;1779931;80;21349;-80
2023/07/21 03:22:45;;;;;;;14.80;11.22;;;;;;;28.71;55.44;99403.45;1798630;79;21527;-80
2023/07/21 03:25:52;;;;;;;18.25;12.30;;;;;;;28.65;55.15;99407.52;1781360;80;21319;-80
2023/07/21 03:29:00;;;;;;;24.37;12.63;;;;;;;28.98;54.78;99411.53;1813594;79;21303;-80
2023/07/21 03:32:09;;;;;;;23.30;12.58;;;;;;;29.22;54.90;99411.22;1780602;80;21679;-80
2023/07/21 03:35:16;;;;;;;15.03;11.25;;;;;;;29.60;54.41;99407.98;1781286;80;21331;-80
2023/07/21 03:38:22;;;;;;;16.55;11.85;;;;;;;29.98;53.59;99414.75;1781411;80;21294;-80
2023/07/21 03:41:30;;;;;;;15.78;11.63;;;;;;;30.45;52.37;99415.63;1781153;80;21323;-80
2023/07/21 03:44:30;;;;;;;18.20;12.30;;;;;;;30.60;51.81;99419.95;1781251;80;21834;-80
2023/07/21 03:47:23;;;;;;;18.23;13.90;;;;;;;30.82;51.35;99428.30;1781425;80;21370;-80
2023/07/21 03:50:29;;;;;;;24.23;15.13;;;;;;;31.41;50.33;99429.16;1781653;80;21342;-80
2023/07/21 03:53:35;;;;;;;19.92;14.87;;;;;;;31.11;51.03;99434.67;1779886;80;21373;-80
2023/07/21 03:56:44;;;;;;;17.45;14.38;;;;;;;31.40;50.08;99442.45;1781336;80;21358;-80
2023/07/21 03:59:50;;;;;;;25.45;16.17;;;;;;;31.76;49.13;99437.78;1779819;80;21346;-80
2023/07/21 04:02:57;;;;;;;21.52;15.58;;;;;;;32.01;48.53;99445.09;1779887;80;21350;-80
2023/07/21 04:06:04;;;;;;;28.65;17.25;;;;;;;32.31;47.64;99443.92;1781332;80;21311;-80
2023/07/21 04:09:13;;;;;;;22.48;15.60;;;;;;;32.42;47.00;99443.55;1781277;80;21319;-80
2023/07/21 04:12:18;;;;;;;22.30;16.70;;;;;;;32.69;45.75;99452.94;1777210;80;21854;-81
2023/07/21 04:15:25;;;;;;;17.45;11.88;;;;;;;32.94;44.64;99444.63;1802977;79;21866;-80
2023/07/21 04:18:30;;;;;;;17.50;12.55;;;;;;;32.74;42.25;99445.64;1803201;79;21283;-80
2023/07/21 04:21:36;;;;;;;20.60;13.65;;;;;;;32.16;43.12;99453.00;1803082;79;21850;-80
2023/07/21 04:24:42;;;;;;;20.95;14.18;;;;;;;32.03;43.34;99440.75;1802512;79;21855;-80
2023/07/21 04:27:52;;;;;;;16.65;14.38;;;;;;;31.98;43.52;99448.59;1802146;78;21914;-80
2023/07/21 04:31:02;;;;;;;18.90;15.53;;;;;;;31.78;43.54;99445.33;1802732;79;21327;-80
2023/07/21 04:34:26;;;;;;;13.88;12.00;;;;;;;31.37;44.11;99454.41;1802454;79;21859;-80
2023/07/21 04:37:34;;;;;;;12.98;11.38;;;;;;;31.04;44.65;99456.92;1802589;79;21350;-80
2023/07/21 04:40:41;;;;;;;13.88;10.80;;;;;;;31.12;44.19;99461.74;1802484;79;21295;-80
2023/07/21 04:43:49;;;;;;;13.50;9.18;;;;;;;31.51;43.52;99467.77;1801287;79;21328;-80
2023/07/21 04:46:55;;;;;;;11.78;9.80;;;;;;;31.57;42.25;99476.89;1802585;79;21826;-81
2023/07/21 04:50:09;;;;;;;11.35;9.15;;;;;;;31.62;42.29;99476.73;1801213;79;21319;-81
2023/07/21 04:53:15;;;;;;;12.78;10.23;;;;;;;31.64;41.95;99473.56;1802226;79;21331;-81
2023/07/21 04:56:21;;;;;;;9.85;8.60;;;;;;;31.64;41.63;99464.50;1781188;79;21621;-81
2023/07/21 04:59:27;;;;;;;12.40;9.30;;;;;;;31.37;41.80;99480.43;1801173;78;21351;-81
2023/07/21 05:02:32;;;;;;;10.50;8.83;;;;;;;31.48;41.68;99484.00;1800984;79;21331;-81
2023/07/21 05:05:38;;;;;;;10.08;7.12;;;;;;;31.62;41.30;99493.70;1803013;79;21299;-81
2023/07/21 05:08:47;;;;;;;8.68;7.78;;;;;;;31.19;41.40;99501.59;1802954;79;21327;-81
2023/07/21 05:11:52;;;;;;;8.00;6.92;;;;;;;31.50;41.55;99494.95;1802559;79;21292;-81
2023/07/21 05:15:00;;;;;;;8.40;6.80;;;;;;;31.47;41.47;99494.20;1799823;79;21319;-80
2023/07/21 05:18:09;;;;;;;7.10;5.50;;;;;;;31.37;41.05;99490.31;1802497;79;21292;-80
2023/07/21 05:21:18;;;;;;;7.00;6.00;;;;;;;31.38;40.56;99499.03;1773994;79;21338;-80
2023/07/21 05:24:25;;;;;;;8.50;5.55;;;;;;;31.37;40.60;99491.14;1801384;79;21287;-80
2023/07/21 05:27:34;;;;;;;7.65;6.58;;;;;;;31.57;40.85;99495.25;1778483;79;21271;-81
2023/07/21 05:30:42;;;;;;;8.45;7.37;;;;;;;31.56;40.88;99500.67;1769705;81;21330;-80
2023/07/21 05:33:51;;;;;;;8.30;7.37;;;;;;;32.18;39.97;99496.49;1769276;81;21322;-80
2023/07/21 05:36:57;;;;;;;10.38;6.37;;;;;;;32.03;40.04;99508.63;1769686;81;21286;-81
2023/07/21 05:40:05;;;;;;;7.33;5.72;;;;;;;31.73;40.27;99494.98;1769806;81;21286;-81
2023/07/21 05:43:10;;;;;;;6.83;6.15;;;;;;;31.56;40.45;99497.84;1769632;81;21298;-81
2023/07/21 05:46:16;;;;;;;5.92;5.17;;;;;;;31.74;40.76;99501.46;1769880;81;21634;-80
2023/07/21 05:49:25;;;;;;;6.15;5.20;;;;;;;31.91;39.90;99506.28;1769892;81;21843;-80
2023/07/21 05:52:32;;;;;;;7.08;5.33;;;;;;;31.94;39.56;99499.92;1769871;81;21303;-80
2023/07/21 05:55:43;;;;;;;6.78;5.55;;;;;;;31.85;39.92;99504.78;1769326;79;21934;-80
2023/07/21 05:58:51;;;;;;;8.28;6.15;;;;;;;31.71;40.40;99507.78;1755972;81;21351;-81
2023/07/21 06:01:57;;;;;;;13.22;6.00;;;;;;;31.84;40.16;99509.61;1737405;81;21909;-81
2023/07/21 06:05:04;;;;;;;7.78;6.15;;;;;;;31.83;40.13;99515.61;1757311;81;21300;-81
2023/07/21 06:08:28;;;;;;;10.23;6.62;;;;;;;32.01;39.84;99518.63;1758555;81;21344;-81
2023/07/21 06:11:38;;;;;;;7.80;6.35;;;;;;;32.35;39.67;99518.23;1737863;79;21318;-81
2023/07/21 06:14:52;;;;;;;8.13;7.30;;;;;;;32.51;39.09;99516.48;1800382;79;21314;-81
2023/07/21 06:18:09;;;;;;;12.50;6.87;;;;;;;32.38;39.10;99526.91;1797265;79;21216;-81
2023/07/21 06:21:15;;;;;;;6.65;6.05;;;;;;;32.57;38.63;99530.71;1809783;79;22001;-80
2023/07/21 06:24:21;;;;;;;7.37;6.60;;;;;;;32.58;39.03;99532.36;1809261;79;21295;-80
2023/07/21 06:27:27;;;;;;;7.95;6.08;;;;;;;32.52;39.40;99532.33;1809603;79;21283;-81
2023/07/21 06:30:34;;;;;;;10.53;5.92;;;;;;;32.63;38.04;99537.83;1808803;79;21881;-81
2023/07/21 06:33:42;;;;;;;6.35;5.75;;;;;;;32.69;38.04;99538.45;1805783;79;21335;-81
2023/07/21 06:36:51;;;;;;;7.50;6.80;;;;;;;32.78;38.47;99542.06;1786343;79;21850;-81
2023/07/21 06:40:16;;;;;;;7.70;6.90;;;;;;;32.90;38.48;99545.02;1809693;79;21869;-81
2023/07/21 06:43:28;;;;;;;8.90;7.00;;;;;;;32.92;38.70;99548.33;1807293;79;21271;-80
2023/07/21 06:46:52;;;;;;;7.20;6.28;;;;;;;33.03;38.00;99552.98;1809975;79;21346;-81
2023/07/21 06:50:16;;;;;;;6.80;5.30;;;;;;;33.10;38.48;99556.11;1809850;79;21319;-81
2023/07/21 06:53:24;;;;;;;8.45;4.60;;;;;;;32.96;38.54;99553.55;1809807;79;21842;-81
2023/07/21 06:56:30;;;;;;;8.65;5.22;;;;;;;32.89;38.04;99567.41;1809723;79;21858;-81
2023/07/21 06:59:36;;;;;;;7.20;4.58;;;;;;;32.80;38.40;99568.05;1809614;79;21300;-81
2023/07/21 07:02:48;;;;;;;9.35;4.45;;;;;;;32.97;38.89;99574.20;1809438;79;21346;-81
2023/07/21 07:05:55;;;;;;;4.72;4.17;;;;;;;33.05;38.12;99569.06;1808897;79;21335;-81
2023/07/21 07:09:01;;;;;;;7.80;4.65;;;;;;;33.13;37.73;99578.09;1809543;79;21291;-80
2023/07/21 07:12:07;;;;;;;7.58;4.70;;;;;;;32.86;38.23;99578.59;1789795;79;21850;-80
2023/07/21 07:15:15;;;;;;;10.68;4.97;;;;;;;33.03;38.49;99581.31;1776556;80;21331;-80
2023/07/21 07:18:22;;;;;;;12.30;4.45;;;;;;;33.05;38.00;99584.65;1776518;80;21326;-80
2023/07/21 07:21:27;;;;;;;6.53;5.62;;;;;;;33.13;37.49;99585.18;1777980;80;21323;-80
2023/07/21 07:24:36;;;;;;;6.20;5.40;;;;;;;33.00;38.02;99577.77;1778030;80;21213;-80
2023/07/21 07:27:41;;;;;;;8.15;5.95;;;;;;;33.34;37.28;99583.75;1753398;80;21287;-80
2023/07/21 07:30:48;;;;;;;7.15;6.40;;;;;;;33.44;37.72;99585.38;1777677;80;21370;-80
2023/07/21 07:33:55;;;;;;;9.00;6.42;;;;;;;33.59;37.30;99577.64;1777785;80;21299;-80
2023/07/21 07:37:01;;;;;;;11.55;7.25;;;;;;;33.53;36.97;99588.95;1777784;80;21342;-80
2023/07/21 07:40:07;;;;;;;9.68;7.37;;;;;;;33.44;36.98;99591.04;1776363;80;21885;-80
2023/07/21 07:43:14;;;;;;;9.68;7.40;;;;;;;33.44;37.55;99590.45;1789793;80;21838;-80
2023/07/21 07:46:20;;;;;;;10.00;7.67;;;;;;;33.63;37.07;99589.12;1790255;80;21386;-80
2023/07/21 07:49:27;;;;;;;10.18;7.28;;;;;;;33.70;36.43;99599.33;1791755;80;21301;-80
2023/07/21 07:52:33;;;;;;;10.63;8.75;;;;;;;33.95;36.03;99600.27;1791445;80;21309;-80
2023/07/21 07:55:44;;;;;;;11.08;8.30;;;;;;;34.03;36.25;99595.09;1790158;79;21323;-80
2023/07/21 07:58:50;;;;;;;13.32;7.65;;;;;;;33.75;36.22;99605.60;1810027;79;21283;-80
2023/07/21 08:01:56;;;;;;;11.53;8.58;;;;;;;33.72;36.51;99600.62;1808500;79;21358;-80
2023/07/21 08:05:03;;;;;;;12.18;8.25;;;;;;;33.83;36.27;99605.29;1809958;79;21743;-80
2023/07/21 08:08:11;;;;;;;13.90;8.68;;;;;;;33.69;36.17;99609.84;1809872;79;21299;-80
2023/07/21 08:11:17;;;;;;;10.23;9.13;;;;;;;33.61;36.39;99612.16;1809756;79;21287;-80
2023/07/21 08:14:23;;;;;;;11.22;8.70;;;;;;;33.50;36.72;99612.31;1810520;79;21300;-80
2023/07/21 08:17:31;;;;;;;10.55;8.75;;;;;;;33.61;36.89;99612.75;1803854;79;21870;-82
2023/07/21 08:20:38;;;;;;;10.38;8.55;;;;;;;33.55;36.94;99620.05;1801502;79;21291;-81
2023/07/21 08:23:46;;;;;;;16.77;8.58;;;;;;;33.61;36.53;99613.58;1801614;79;21319;-81
2023/07/21 08:26:54;;;;;;;8.65;7.70;;;;;;;33.49;36.18;99610.66;1800533;79;21188;-81
2023/07/21 08:30:02;;;;;;;10.63;7.75;;;;;;;33.73;35.67;99618.45;1799970;79;21323;-81
2023/07/21 08:33:10;;;;;;;10.95;7.92;;;;;;;33.89;35.82;99619.48;1800211;79;21896;-79
2023/07/21 08:36:17;;;;;;;9.50;7.87;;;;;;;33.96;35.99;99626.02;1801187;79;21359;-80
2023/07/21 08:39:25;;;;;;;10.55;8.20;;;;;;;33.80;35.32;99629.48;1801545;79;22514;-80
2023/07/21 08:42:32;;;;;;;10.80;7.25;;;;;;;33.82;35.41;99627.71;1800034;79;21307;-81
2023/07/21 08:45:38;;;;;;;8.95;7.40;;;;;;;34.06;35.28;99634.09;1800224;79;21272;-81
2023/07/21 08:48:38;;;;;;;9.23;6.70;;;;;;;33.96;35.21;99634.53;1801424;79;21311;-81
2023/07/21 08:51:30;;;;;;;8.68;6.60;;;;;;;33.93;35.24;99629.55;1801470;79;21322;-81
2023/07/21 08:54:28;;;;;;;8.55;7.53;;;;;;;33.96;34.90;99636.78;1799999;79;21307;-81
2023/07/21 08:57:20;;;;;;;7.53;6.42;;;;;;;33.96;35.03;99640.20;1800319;79;21335;-81
2023/07/21 09:00:10;;;;;;;9.20;6.28;;;;;;;33.99;34.39;99651.69;1801425;79;21287;-80
2023/07/21 09:03:08;;;;;;;7.35;6.65;;;;;;;34.05;33.57;99642.37;1800483;79;21881;-80
2023/07/21 09:06:14;;;;;;;6.97;6.28;;;;;;;34.03;34.37;99645.56;1801533;79;22282;-81
2023/07/21 09:09:26;;;;;;;7.17;6.50;;;;;;;34.27;33.83;99639.12;1799940;79;21296;-80
2023/07/21 09:12:32;;;;;;;8.38;6.72;;;;;;;33.98;34.14;99642.13;1767255;79;21336;-80
2023/07/21 09:15:37;;;;;;;7.17;5.90;;;;;;;33.99;33.97;99657.37;1741190;81;21304;-81
2023/07/21 09:18:51;;;;;;;6.33;5.72;;;;;;;33.97;33.33;99653.20;1768583;80;22324;-80
2023/07/21 09:22:06;;;;;;;6.00;5.33;;;;;;;33.65;33.39;99657.07;1782143;80;21319;-81
2023/07/21 09:25:14;;;;;;;6.80;5.97;;;;;;;33.58;33.04;99656.78;1810520;79;21180;-81
2023/07/21 09:28:20;;;;;;;8.53;6.00;;;;;;;33.65;33.67;99652.81;1782455;80;21933;-81
2023/07/21 09:31:34;;;;;;;8.30;6.20;;;;;;;33.86;33.98;99650.54;1783404;80;21341;-80
2023/07/21 09:34:41;;;;;;;7.05;6.37;;;;;;;33.54;34.16;99661.48;1783709;80;21326;-80
2023/07/21 09:37:48;;;;;;;7.72;6.25;;;;;;;33.41;34.45;99663.40;1782914;80;21196;-80
2023/07/21 09:40:53;;;;;;;8.08;6.67;;;;;;;33.14;34.10;99666.75;1782053;80;21937;-80
2023/07/21 09:43:59;;;;;;;8.30;6.08;;;;;;;33.38;35.08;99665.50;1783341;80;21298;-80
2023/07/21 09:47:07;;;;;;;6.05;5.45;;;;;;;33.56;33.91;99654.89;1782068;80;21327;-80
2023/07/21 09:50:14;;;;;;;9.30;5.90;;;;;;;33.68;32.60;99668.29;1782845;80;21311;-80
2023/07/21 09:53:21;;;;;;;7.53;6.83;;;;;;;33.63;32.85;99670.75;1783334;80;21295;-81
2023/07/21 09:56:27;;;;;;;7.75;6.95;;;;;;;33.82;33.92;99675.33;1783233;80;21854;-80
2023/07/21 09:59:34;;;;;;;10.13;6.60;;;;;;;33.74;33.94;99666.34;1783472;80;21299;-81
2023/07/21 10:02:42;;;;;;;7.78;6.65;;;;;;;33.74;33.16;99666.34;1782903;80;21877;-80
2023/07/21 10:05:48;;;;;;;8.20;6.42;;;;;;;33.85;32.64;99665.31;1783539;80;21307;-80
2023/07/21 10:08:53;;;;;;;8.43;6.20;;;;;;;33.57;32.83;99670.12;1782386;80;21636;-81
2023/07/21 10:11:59;;;;;;;8.05;6.12;;;;;;;33.55;32.37;99673.09;1783637;80;21922;-81
2023/07/21 10:15:06;;;;;;;12.65;6.58;;;;;;;33.74;31.68;99673.42;1782144;80;21295;-79
2023/07/21 10:18:14;;;;;;;6.83;6.12;;;;;;;33.66;31.83;99672.91;1781972;80;21310;-80
2023/07/21 10:21:20;;;;;;;7.97;6.40;;;;;;;33.58;31.44;99672.38;1796629;79;21275;-80
2023/07/21 10:24:36;;;;;;;8.08;6.97;;;;;;;33.65;32.22;99674.08;1815558;79;21874;-80
2023/07/21 10:27:42;;;;;;;9.73;6.62;;;;;;;33.61;32.14;99663.78;1815259;79;21290;-80
2023/07/21 10:30:48;;;;;;;8.28;6.95;;;;;;;33.77;32.14;99674.72;1815461;79;21287;-80
2023/07/21 10:34:18;;;;;;;9.18;6.92;;;;;;;33.62;32.45;99675.36;1815005;79;21338;-80
2023/07/21 10:37:24;;;;;;;7.20;6.50;;;;;;;33.50;32.67;99678.38;1816692;79;21874;-80
2023/07/21 10:40:30;;;;;;;12.45;7.60;;;;;;;33.69;32.41;99674.20;1790637;79;21629;-80
2023/07/21 10:43:36;;;;;;;12.88;7.40;;;;;;;33.54;32.55;99674.23;1783291;80;21321;-80
2023/07/21 10:46:57;;;;;;;9.58;8.03;;;;;;;33.77;32.24;99669.88;1783224;80;21325;-80
2023/07/21 10:50:04;;;;;;;7.97;7.17;;;;;;;33.92;32.37;99666.16;1783028;80;21310;-80
2023/07/21 10:53:10;;;;;;;10.65;7.40;;;;;;;34.29;31.02;99672.23;1782095;80;21310;-80
2023/07/21 10:56:17;;;;;;;11.28;7.72;;;;;;;34.51;31.50;99663.10;1783278;80;21295;-80
2023/07/21 10:59:26;;;;;;;9.70;8.08;;;;;;;34.47;30.71;99689.11;1782351;80;21370;-80
2023/07/21 11:02:32;;;;;;;11.83;8.10;;;;;;;34.46;30.99;99680.36;1746300;81;21740;-80
2023/07/21 11:05:43;;;;;;;10.13;7.60;;;;;;;34.46;31.23;99669.02;1745071;82;21917;-80
2023/07/21 11:08:50;;;;;;;10.18;7.83;;;;;;;34.07;30.63;99679.75;1745972;81;21795;-80
2023/07/21 11:12:00;;;;;;;10.05;8.00;;;;;;;34.10;31.57;99681.87;1758292;81;21346;-80
2023/07/21 11:15:08;;;;;;;10.93;7.90;;;;;;;34.21;31.37;99685.12;1756858;81;21320;-80
2023/07/21 11:18:13;;;;;;;14.50;7.95;;;;;;;34.14;31.36;99684.25;1758137;81;21755;-80
2023/07/21 11:21:19;;;;;;;9.98;7.55;;;;;;;34.20;31.26;99687.70;1754466;81;21335;-80
2023/07/21 11:24:35;;;;;;;10.95;7.37;;;;;;;34.20;31.31;99684.86;1753675;81;21721;-80
2023/07/21 11:27:48;;;;;;;9.98;7.05;;;;;;;34.27;30.78;99689.39;1749359;82;21315;-80
2023/07/21 11:30:53;;;;;;;10.10;7.40;;;;;;;34.36;31.11;99699.23;1749901;82;21335;-80
2023/07/21 11:34:00;;;;;;;8.10;7.37;;;;;;;34.46;30.97;99703.08;1727387;82;21320;-80
2023/07/21 11:37:08;;;;;;;13.58;7.47;;;;;;;34.36;31.23;99702.08;1750106;82;21184;-80
2023/07/21 11:40:15;;;;;;;9.05;7.00;;;;;;;34.52;31.11;99705.92;1748928;82;21351;-80
2023/07/21 11:43:21;;;;;;;8.13;6.50;;;;;;;34.43;30.31;99705.98;1750301;82;21330;-80
2023/07/21 11:46:33;;;;;;;8.73;6.50;;;;;;;34.29;30.57;99715.40;1748985;82;21909;-80
2023/07/21 11:49:47;;;;;;;7.17;6.55;;;;;;;34.12;30.72;99696.55;1749320;82;21224;-80
2023/07/21 11:52:55;;;;;;;7.45;5.83;;;;;;;34.35;30.87;99712.61;1750398;82;21314;-81
2023/07/21 11:56:03;;;;;;;9.38;6.30;;;;;;;33.94;30.34;99709.20;1750126;82;21326;-80
2023/07/21 11:59:11;;;;;;;6.75;5.92;;;;;;;33.88;30.84;99696.39;1749722;82;21358;-80
2023/07/21 12:02:22;;;;;;;7.90;6.30;;;;;;;33.94;30.81;99704.36;1750096;82;21382;-80
2023/07/21 12:05:27;;;;;;;6.42;5.30;;;;;;;33.98;30.87;99707.38;1749853;82;21342;-80
2023/07/21 12:08:34;;;;;;;5.20;4.70;;;;;;;33.90;31.22;99706.23;1750279;82;21905;-80
2023/07/21 12:11:43;;;;;;;5.42;4.58;;;;;;;34.16;31.09;99718.80;1750276;82;21331;-80
2023/07/21 12:14:50;;;;;;;5.25;4.72;;;;;;;34.12;30.54;99705.06;1750082;81;21229;-80
2023/07/21 12:17:56;;;;;;;7.60;4.67;;;;;;;34.30;30.30;99715.08;1750219;82;21323;-80
2023/07/21 12:21:03;;;;;;;5.60;3.92;;;;;;;34.22;29.32;99728.75;1747031;82;22313;-81
2023/07/21 12:24:11;;;;;;;5.78;3.75;;;;;;;34.10;30.04;99721.59;1737066;82;21312;-80
2023/07/21 12:27:18;;;;;;;10.40;3.75;;;;;;;34.06;29.57;99714.95;1738418;82;21324;-80
2023/07/21 12:30:25;;;;;;;7.35;3.00;;;;;;;34.04;29.53;99715.31;1737488;82;21225;-80
2023/07/21 12:33:31;;;;;;;3.40;2.67;;;;;;;34.04;29.18;99721.58;1738449;82;21882;-80
2023/07/21 12:36:38;;;;;;;5.25;3.00;;;;;;;33.85;29.13;99722.63;1737426;82;21327;-80
2023/07/21 12:39:46;;;;;;;5.12;3.10;;;;;;;33.77;29.91;99720.09;1737996;82;21346;-80
2023/07/21 12:42:52;;;;;;;6.65;2.83;;;;;;;33.96;29.89;99722.47;1738329;82;21318;-80
2023/07/21 12:46:00;;;;;;;8.15;2.30;;;;;;;34.03;29.41;99722.17;1738326;82;21303;-80
2023/07/21 12:49:08;;;;;;;7.67;2.52;;;;;;;34.13;29.07;99713.81;1739095;82;21209;-80
2023/07/21 12:52:13;;;;;;;2.80;2.37;;;;;;;33.94;29.50;99724.22;1737428;82;21367;-80
2023/07/21 12:55:20;;;;;;;3.47;2.37;;;;;;;33.79;29.97;99723.44;1738520;82;21323;-80
2023/07/21 12:58:25;;;;;;;13.20;3.00;;;;;;;33.74;29.55;99732.98;1738555;82;21591;-80
2023/07/21 13:01:33;;;;;;;3.47;2.77;;;;;;;33.85;29.24;99733.38;1737129;82;21804;-80
2023/07/21 13:04:39;;;;;;;6.37;2.72;;;;;;;33.64;29.49;99736.20;1737150;82;21193;-80
2023/07/21 13:07:46;;;;;;;5.37;2.77;;;;;;;33.33;29.79;99737.38;1738313;82;21933;-80
2023/07/21 13:10:54;;;;;;;4.37;2.37;;;;;;;33.28;30.26;99741.00;1738910;82;21318;-79
2023/07/21 13:14:00;;;;;;;5.33;2.50;;;;;;;33.10;29.87;99745.09;1721097;82;21809;-80
2023/07/21 13:17:00;;;;;;;5.62;2.30;;;;;;;33.00;29.87;99739.22;1722370;83;21862;-80
2023/07/21 13:19:53;;;;;;;2.65;2.20;;;;;;;33.13;29.74;99731.67;1724027;83;21235;-80
2023/07/21 13:22:58;;;;;;;7.13;2.53;;;;;;;33.14;29.64;99734.16;1728503;81;21302;-80
2023/07/21 13:26:06;;;;;;;7.22;3.05;;;;;;;33.23;30.23;99736.36;1758015;81;21618;-80
2023/07/21 13:29:13;;;;;;;5.05;2.70;;;;;;;33.27;29.96;99732.26;1759177;81;21320;-80
2023/07/21 13:32:18;;;;;;;7.97;2.75;;;;;;;33.47;30.19;99730.08;1767362;81;21308;-80
2023/07/21 13:35:24;;;;;;;3.12;2.60;;;;;;;33.35;30.19;99743.28;1767690;81;21233;-79
2023/07/21 13:38:31;;;;;;;3.92;2.45;;;;;;;33.46;30.10;99743.19;1766093;81;21323;-79
2023/07/21 13:41:37;;;;;;;2.40;1.90;;;;;;;33.69;29.56;99748.78;1766640;81;21981;-79
2023/07/21 13:44:38;;;;;;;3.10;1.98;;;;;;;33.38;29.76;99740.60;1767667;81;21195;-79
2023/07/21 13:47:43;;;;;;;4.55;2.45;;;;;;;33.31;29.57;99741.16;1767663;81;21331;-79
2023/07/21 13:50:49;;;;;;;6.75;2.35;;;;;;;33.45;29.88;99745.16;1766122;81;21792;-80
2023/07/21 13:53:58;;;;;;;4.17;2.67;;;;;;;33.46;29.54;99756.77;1767548;81;21907;-79
2023/07/21 13:57:03;;;;;;;10.23;2.98;;;;;;;33.52;29.54;99754.56;1767483;81;21296;-79
2023/07/21 14:00:18;;;;;;;4.50;3.33;;;;;;;33.53;30.15;99746.29;1767686;81;21324;-79
2023/07/21 14:03:19;;;;;;;5.08;3.45;;;;;;;33.52;31.36;99755.97;1766762;81;21387;-79
2023/07/21 14:06:26;;;;;;;6.45;3.15;;;;;;;33.71;31.38;99758.35;1766251;81;21299;-79
2023/07/21 14:09:33;;;;;;;4.78;3.47;;;;;;;33.70;30.81;99756.11;1767741;81;21241;-79
2023/07/21 14:12:39;;;;;;;5.22;3.58;;;;;;;33.68;31.43;99775.45;1766281;81;21311;-79
2023/07/21 14:15:48;;;;;;;8.63;3.52;;;;;;;33.80;30.89;99768.45;1767702;81;21862;-79
2023/07/21 14:18:54;;;;;;;5.08;3.77;;;;;;;33.78;30.82;99777.05;1767636;81;21300;-80
2023/07/21 14:21:59;;;;;;;8.30;4.28;;;;;;;33.54;31.19;99774.88;1766740;81;21328;-79
2023/07/21 14:25:05;;;;;;;7.17;3.77;;;;;;;33.48;31.14;99772.00;1764406;81;21335;-79
2023/07/21 14:28:11;;;;;;;8.55;3.80;;;;;;;33.51;31.18;99774.16;1802513;79;21310;-79
2023/07/21 14:31:17;;;;;;;5.05;3.30;;;;;;;33.45;31.11;99776.93;1802321;79;21907;-79
2023/07/21 14:34:23;;;;;;;5.28;3.77;;;;;;;33.32;31.36;99779.65;1802553;79;21934;-79
2023/07/21 14:37:29;;;;;;;8.05;4.08;;;;;;;33.20;31.32;99777.28;1802470;79;21307;-79
2023/07/21 14:40:35;;;;;;;10.48;4.83;;;;;;;33.09;31.76;99781.68;1802555;79;21315;-79